Time;durP1;ratioP1;P1;durP2;ratioP2;P2;SDS_P1;SDS_P2;PMS_P1;PMS_P2;Temp;Humidity;BMP_temperature;BMP_pressure;BME280_temperature;BME280_humidity;BME280_pressure;Samples;Min_cycle;Max_cycle;Signal;HPM_P1;HPM_P2
2021/12/03 00:01:22;;;;;;;4.87;3.93;;;3.30;77.00;;;;;;5081207;28;20839;-42
2021/12/03 00:03:49;;;;;;;4.97;4.10;;;3.30;77.20;;;;;;5086011;27;20971;-42
2021/12/03 00:06:16;;;;;;;4.63;4.23;;;3.20;77.00;;;;;;5088856;28;20827;-42
2021/12/03 00:08:44;;;;;;;4.37;4.00;;;3.20;77.30;;;;;;5097926;27;20711;-42
2021/12/03 00:11:13;;;;;;;4.30;3.80;;;3.20;77.10;;;;;;5100972;27;20482;-42
2021/12/03 00:13:41;;;;;;;4.37;4.00;;;3.20;77.30;;;;;;5069241;28;20445;-42
2021/12/03 00:16:09;;;;;;;4.30;3.67;;;3.20;76.90;;;;;;5102788;27;20453;-42
2021/12/03 00:18:36;;;;;;;3.47;3.20;;;3.20;76.90;;;;;;5083136;28;20904;-42
2021/12/03 00:21:05;;;;;;;4.70;4.30;;;3.10;77.00;;;;;;5098650;27;20978;-42
2021/12/03 00:23:33;;;;;;;3.97;3.57;;;3.10;77.20;;;;;;5100070;27;20953;-42
2021/12/03 00:26:01;;;;;;;3.60;3.30;;;3.10;77.00;;;;;;5097626;27;20464;-42
2021/12/03 00:28:28;;;;;;;3.77;3.40;;;3.10;76.40;;;;;;5099045;28;20467;-42
2021/12/03 00:30:55;;;;;;;4.23;3.83;;;3.10;76.40;;;;;;5099737;27;20815;-42
2021/12/03 00:33:22;;;;;;;4.63;3.90;;;3.10;76.50;;;;;;5097993;27;20465;-42
2021/12/03 00:35:51;;;;;;;3.70;3.40;;;3.00;76.50;;;;;;5102317;27;20456;-42
2021/12/03 00:38:20;;;;;;;4.67;4.27;;;3.00;76.70;;;;;;5078001;28;21023;-42
2021/12/03 00:40:47;;;;;;;4.60;4.20;;;3.00;76.70;;;;;;5084770;27;20870;-42
2021/12/03 00:43:14;;;;;;;5.00;4.57;;;3.00;76.70;;;;;;5098067;27;20478;-42
2021/12/03 00:45:43;;;;;;;16.30;9.07;;;3.00;76.70;;;;;;5096826;27;20466;-42
2021/12/03 00:48:10;;;;;;;18.30;12.07;;;2.90;76.60;;;;;;5098210;27;20536;-42
2021/12/03 00:50:37;;;;;;;16.60;10.13;;;2.90;76.50;;;;;;5078745;27;20469;-42
2021/12/03 00:53:04;;;;;;;8.57;6.77;;;2.90;77.00;;;;;;5081090;28;21005;-42
2021/12/03 00:55:32;;;;;;;5.87;5.27;;;2.90;77.10;;;;;;5097631;27;20483;-43
2021/12/03 00:57:59;;;;;;;5.50;5.00;;;2.90;77.00;;;;;;5079131;28;20503;-42
2021/12/03 01:00:29;;;;;;;5.50;4.93;;;2.90;77.40;;;;;;5100053;27;20459;-42
2021/12/03 01:02:58;;;;;;;7.77;5.57;;;2.90;77.10;;;;;;5083322;28;20996;-42
2021/12/03 01:05:25;;;;;;;6.83;5.63;;;2.80;77.50;;;;;;5098030;27;20491;-42
2021/12/03 01:07:53;;;;;;;7.70;5.93;;;2.80;77.60;;;;;;5098221;28;20460;-42
2021/12/03 01:10:20;;;;;;;7.60;5.97;;;2.80;77.60;;;;;;5100011;28;20996;-42
2021/12/03 01:12:47;;;;;;;5.97;5.37;;;2.90;77.20;;;;;;5101756;27;20454;-42
2021/12/03 01:15:17;;;;;;;6.20;5.60;;;2.80;77.50;;;;;;5081707;28;20453;-42
2021/12/03 01:17:44;;;;;;;7.23;6.10;;;2.90;77.90;;;;;;5081175;28;20493;-42
2021/12/03 01:20:13;;;;;;;6.90;5.43;;;2.90;77.40;;;;;;5103012;27;20453;-42
2021/12/03 01:22:41;;;;;;;8.00;6.70;;;2.90;77.30;;;;;;5084721;27;20506;-42
2021/12/03 01:25:10;;;;;;;8.50;6.30;;;2.80;77.40;;;;;;5096281;28;20468;-42
2021/12/03 01:27:37;;;;;;;6.87;6.17;;;2.80;77.60;;;;;;5098333;27;20542;-42
2021/12/03 01:30:08;;;;;;;8.23;6.57;;;2.80;77.70;;;;;;5096269;28;20467;-42
2021/12/03 01:32:35;;;;;;;6.10;5.50;;;2.80;77.80;;;;;;5086471;27;20453;-42
2021/12/03 01:35:02;;;;;;;6.73;6.10;;;2.80;77.90;;;;;;5097698;27;20467;-42
2021/12/03 01:37:29;;;;;;;7.17;5.47;;;2.90;78.30;;;;;;5079659;28;20530;-42
2021/12/03 01:39:56;;;;;;;8.00;5.83;;;2.80;78.20;;;;;;5098885;27;20811;-42
2021/12/03 01:42:23;;;;;;;7.93;5.43;;;2.80;78.10;;;;;;5077273;27;20472;-42
2021/12/03 01:44:50;;;;;;;6.87;6.17;;;2.80;78.10;;;;;;5095845;28;20459;-42
2021/12/03 01:47:16;;;;;;;7.87;6.90;;;2.70;78.10;;;;;;5097272;27;20489;-42
2021/12/03 01:49:44;;;;;;;8.67;7.67;;;2.70;78.10;;;;;;5100702;27;20465;-42
2021/12/03 01:52:11;;;;;;;10.87;7.20;;;2.60;78.40;;;;;;5095675;27;20464;-42
2021/12/03 01:54:38;;;;;;;6.73;5.70;;;2.60;78.60;;;;;;5101029;27;21242;-42
2021/12/03 01:57:05;;;;;;;9.90;7.70;;;2.50;78.70;;;;;;5099613;28;20484;-42
2021/12/03 01:59:32;;;;;;;9.10;7.43;;;2.60;78.90;;;;;;5080405;28;20455;-42
2021/12/03 02:01:59;;;;;;;11.10;6.63;;;2.50;78.90;;;;;;5081597;27;20772;-42
2021/12/03 02:04:26;;;;;;;8.67;7.40;;;2.50;79.00;;;;;;5100675;27;20943;-42
2021/12/03 02:06:53;;;;;;;11.57;7.90;;;2.50;79.00;;;;;;5096199;27;20472;-42
2021/12/03 02:09:20;;;;;;;9.60;7.30;;;2.40;79.00;;;;;;5080052;28;20462;-42
2021/12/03 02:11:47;;;;;;;9.70;7.53;;;2.40;79.30;;;;;;5095229;28;20458;-42
2021/12/03 02:14:13;;;;;;;10.10;7.30;;;2.40;79.50;;;;;;5101627;27;20972;-42
2021/12/03 02:16:44;;;;;;;9.60;7.30;;;2.40;79.50;;;;;;5087098;28;20467;-43
2021/12/03 02:19:11;;;;;;;11.87;8.20;;;2.40;79.50;;;;;;5097860;27;21024;-42
2021/12/03 02:21:37;;;;;;;12.43;8.77;;;2.40;79.40;;;;;;5080779;28;20468;-42
2021/12/03 02:24:05;;;;;;;12.23;8.50;;;2.30;79.40;;;;;;5085556;28;20459;-42
2021/12/03 02:26:32;;;;;;;13.43;9.23;;;2.30;79.50;;;;;;5068237;28;20480;-42
2021/12/03 02:28:58;;;;;;;13.57;9.53;;;2.20;79.60;;;;;;5056809;28;20469;-42
2021/12/03 02:31:25;;;;;;;11.33;7.67;;;2.30;79.80;;;;;;5079336;28;20469;-42
2021/12/03 02:33:53;;;;;;;11.47;8.30;;;2.30;79.80;;;;;;5080172;28;20467;-42
2021/12/03 02:36:21;;;;;;;10.70;7.20;;;2.30;79.80;;;;;;5098632;28;20475;-42
2021/12/03 02:38:47;;;;;;;11.00;8.97;;;2.20;79.90;;;;;;5086961;28;20485;-42
2021/12/03 02:41:15;;;;;;;13.67;9.90;;;2.20;79.90;;;;;;5095953;28;20468;-42
2021/12/03 02:43:43;;;;;;;12.00;8.17;;;2.20;80.10;;;;;;5095224;28;20457;-42
2021/12/03 02:46:10;;;;;;;10.47;8.00;;;2.20;79.80;;;;;;5077976;28;20464;-42
2021/12/03 02:48:37;;;;;;;10.77;8.33;;;2.20;79.90;;;;;;5084511;28;20541;-42
2021/12/03 02:51:05;;;;;;;8.83;7.90;;;2.20;80.10;;;;;;5079973;28;20460;-42
2021/12/03 02:53:33;;;;;;;10.40;7.10;;;2.20;80.00;;;;;;5095025;28;20989;-42
2021/12/03 02:56:00;;;;;;;13.50;6.30;;;2.20;79.90;;;;;;5100453;28;20483;-42
2021/12/03 02:58:27;;;;;;;8.40;6.87;;;2.20;80.00;;;;;;5078681;28;20491;-42
2021/12/03 03:00:54;;;;;;;8.63;5.70;;;2.20;80.00;;;;;;5103900;27;20969;-43
2021/12/03 03:03:21;;;;;;;8.10;6.33;;;2.20;79.90;;;;;;5100509;27;20531;-42
2021/12/03 03:05:57;;;;;;;7.37;5.50;;;2.20;80.00;;;;;;5085703;28;20531;-42
2021/12/03 03:08:25;;;;;;;5.57;5.07;;;2.20;79.90;;;;;;5102509;27;20981;-42
2021/12/03 03:10:53;;;;;;;10.70;5.90;;;2.20;80.00;;;;;;5105474;27;20834;-42
2021/12/03 03:13:20;;;;;;;6.07;4.83;;;2.20;79.90;;;;;;5096584;27;20468;-42
2021/12/03 03:15:47;;;;;;;7.33;4.87;;;2.20;79.90;;;;;;5101093;27;20530;-42
2021/12/03 03:18:23;;;;;;;5.73;4.60;;;2.20;79.80;;;;;;5098462;27;20516;-42
2021/12/03 03:20:53;;;;;;;6.87;4.33;;;2.20;80.00;;;;;;5101169;27;20507;-42
2021/12/03 03:23:20;;;;;;;5.03;4.50;;;2.20;80.30;;;;;;5101182;27;20475;-42
2021/12/03 03:25:49;;;;;;;5.17;4.10;;;2.20;80.40;;;;;;5087526;27;20451;-42
2021/12/03 03:28:17;;;;;;;7.53;4.80;;;2.20;80.30;;;;;;5079237;28;20459;-42
2021/12/03 03:30:47;;;;;;;6.27;4.40;;;2.10;80.40;;;;;;5106518;27;20982;-42
2021/12/03 03:33:14;;;;;;;5.50;5.00;;;2.10;80.50;;;;;;5098232;27;20453;-42
2021/12/03 03:35:41;;;;;;;6.63;4.80;;;2.10;80.60;;;;;;5087758;28;20452;-42
2021/12/03 03:38:09;;;;;;;8.93;5.10;;;2.00;80.70;;;;;;5100029;27;20483;-42
2021/12/03 03:40:36;;;;;;;8.10;4.73;;;2.10;80.50;;;;;;5099522;27;20466;-42
2021/12/03 03:43:05;;;;;;;5.43;4.43;;;2.10;80.20;;;;;;5068174;28;20509;-43
2021/12/03 03:45:33;;;;;;;6.10;4.67;;;2.10;80.20;;;;;;5099020;27;20950;-43
2021/12/03 03:48:01;;;;;;;9.80;3.90;;;2.10;80.50;;;;;;5101138;27;20985;-43
2021/12/03 03:50:28;;;;;;;4.97;4.00;;;2.00;80.50;;;;;;5100679;27;20462;-43
2021/12/03 03:52:56;;;;;;;6.33;4.43;;;2.00;80.50;;;;;;5080443;28;20476;-43
2021/12/03 03:55:24;;;;;;;5.20;4.03;;;2.00;80.70;;;;;;5083294;28;20471;-43
2021/12/03 03:57:53;;;;;;;6.43;5.07;;;2.00;80.60;;;;;;5080361;27;20492;-43
2021/12/03 04:00:25;;;;;;;5.73;3.70;;;2.00;80.60;;;;;;5083411;28;20456;-43
2021/12/03 04:02:51;;;;;;;7.23;5.00;;;2.00;80.50;;;;;;5099862;28;20460;-43
2021/12/03 04:05:20;;;;;;;5.10;3.70;;;2.00;80.20;;;;;;5078875;28;20448;-43
2021/12/03 04:07:46;;;;;;;7.50;4.87;;;2.00;80.10;;;;;;5082986;28;20456;-43
2021/12/03 04:10:14;;;;;;;8.77;4.23;;;2.00;80.20;;;;;;5098014;28;20453;-43
2021/12/03 04:12:41;;;;;;;10.83;5.30;;;2.00;80.30;;;;;;5102541;27;20464;-43
2021/12/03 04:15:10;;;;;;;6.00;4.60;;;2.00;80.30;;;;;;5096835;27;20456;-43
2021/12/03 04:17:37;;;;;;;8.30;4.90;;;2.00;80.30;;;;;;5100356;27;20465;-43
2021/12/03 04:20:06;;;;;;;8.50;5.50;;;2.00;80.30;;;;;;5098346;27;20458;-43
2021/12/03 04:22:34;;;;;;;5.47;4.60;;;2.00;80.30;;;;;;5100246;27;20461;-43
2021/12/03 04:25:03;;;;;;;8.20;4.93;;;2.00;80.50;;;;;;5085618;27;20554;-43
2021/12/03 04:27:30;;;;;;;5.40;3.93;;;2.00;80.30;;;;;;5097354;28;20847;-43
2021/12/03 04:29:57;;;;;;;8.40;4.37;;;1.90;80.60;;;;;;5101861;27;21125;-43
2021/12/03 04:32:25;;;;;;;6.37;4.37;;;1.90;80.70;;;;;;5081835;28;20459;-43
2021/12/03 04:34:53;;;;;;;4.93;3.70;;;1.90;80.70;;;;;;5082567;27;20945;-43
2021/12/03 04:37:20;;;;;;;9.50;4.70;;;1.90;80.70;;;;;;5097886;27;20461;-43
2021/12/03 04:39:47;;;;;;;7.43;5.33;;;1.90;80.70;;;;;;5088800;27;20566;-43
2021/12/03 04:42:14;;;;;;;7.40;4.80;;;1.90;80.70;;;;;;5099495;27;21054;-43
2021/12/03 04:44:41;;;;;;;6.20;4.93;;;1.90;80.80;;;;;;5100749;28;20453;-43
2021/12/03 04:47:08;;;;;;;7.47;5.17;;;1.80;80.80;;;;;;5099233;27;20456;-43
2021/12/03 04:49:35;;;;;;;7.23;5.20;;;1.80;80.90;;;;;;5102461;27;20491;-43
2021/12/03 04:52:02;;;;;;;11.03;4.70;;;1.80;80.70;;;;;;5083579;28;20467;-43
2021/12/03 04:54:29;;;;;;;7.17;4.90;;;1.80;80.70;;;;;;5098287;27;20453;-43
2021/12/03 04:56:56;;;;;;;5.93;4.50;;;1.80;80.80;;;;;;5098640;27;20550;-43
2021/12/03 04:59:23;;;;;;;6.97;4.20;;;1.80;80.80;;;;;;5076898;28;20488;-43
2021/12/03 05:01:54;;;;;;;5.20;4.50;;;1.80;80.70;;;;;;5098686;27;20461;-43
2021/12/03 05:04:21;;;;;;;6.00;4.33;;;1.80;80.60;;;;;;5080530;28;20488;-42
2021/12/03 05:07:05;;;;;;;6.00;4.20;;;1.80;80.50;;;;;;5096215;28;20460;-42
2021/12/03 05:09:32;;;;;;;6.37;4.83;;;1.70;80.70;;;;;;5095147;28;20502;-42
2021/12/03 05:12:00;;;;;;;5.43;4.40;;;1.80;80.80;;;;;;5098554;28;20468;-42
2021/12/03 05:14:27;;;;;;;5.93;4.53;;;1.70;81.00;;;;;;5096938;28;20464;-42
2021/12/03 05:16:54;;;;;;;4.23;3.57;;;1.70;81.00;;;;;;5098850;27;20549;-42
2021/12/03 05:19:21;;;;;;;7.60;4.57;;;1.70;81.00;;;;;;5081951;28;20738;-43
2021/12/03 05:21:47;;;;;;;5.57;4.03;;;1.70;81.00;;;;;;5087710;28;20453;-43
2021/12/03 05:24:15;;;;;;;9.10;5.80;;;1.70;81.10;;;;;;5100841;27;20457;-43
2021/12/03 05:26:44;;;;;;;5.47;4.90;;;1.70;80.90;;;;;;5084183;28;20456;-43
2021/12/03 05:29:12;;;;;;;6.53;4.63;;;1.70;80.50;;;;;;5086746;27;20471;-42
2021/12/03 05:31:39;;;;;;;8.30;4.17;;;1.70;80.60;;;;;;5098526;27;20467;-42
2021/12/03 05:34:26;;;;;;;5.90;4.80;;;1.70;80.80;;;;;;5095263;27;20461;-42
2021/12/03 05:36:53;;;;;;;5.30;4.60;;;1.60;81.00;;;;;;5069961;27;20490;-42
2021/12/03 05:39:20;;;;;;;5.47;4.20;;;1.60;81.10;;;;;;5074089;28;20586;-42
2021/12/03 05:41:46;;;;;;;4.13;3.40;;;1.60;81.00;;;;;;5098107;28;20820;-42
2021/12/03 05:44:13;;;;;;;5.67;4.30;;;1.60;81.00;;;;;;5084188;28;20822;-42
2021/12/03 05:46:40;;;;;;;7.27;4.33;;;1.60;81.20;;;;;;5098624;27;20445;-42
2021/12/03 05:49:07;;;;;;;5.27;4.07;;;1.60;81.40;;;;;;5081499;28;20476;-42
2021/12/03 05:51:34;;;;;;;6.73;3.60;;;1.60;81.40;;;;;;5080429;28;20463;-42
2021/12/03 05:54:01;;;;;;;9.40;4.07;;;1.60;81.30;;;;;;5079078;28;20977;-42
2021/12/03 05:56:28;;;;;;;7.80;5.43;;;1.60;81.40;;;;;;5079617;28;20491;-43
2021/12/03 05:58:59;;;;;;;6.83;4.70;;;1.60;81.40;;;;;;5100602;27;20492;-42
2021/12/03 06:01:26;;;;;;;4.60;4.00;;;1.70;81.30;;;;;;5094269;28;20459;-42
2021/12/03 06:03:53;;;;;;;5.57;4.60;;;1.70;81.10;;;;;;5079390;28;20845;-42
2021/12/03 06:06:19;;;;;;;5.47;4.47;;;1.70;80.80;;;;;;5081659;28;20540;-42
2021/12/03 06:08:47;;;;;;;7.43;3.80;;;1.80;80.80;;;;;;5080106;28;20468;-42
2021/12/03 06:11:14;;;;;;;5.70;3.87;;;1.80;80.70;;;;;;5078209;28;20501;-42
2021/12/03 06:13:41;;;;;;;5.30;3.97;;;1.80;80.60;;;;;;5097887;27;20452;-42
2021/12/03 06:16:09;;;;;;;6.37;4.50;;;1.80;80.60;;;;;;5095743;28;21174;-42
2021/12/03 06:18:37;;;;;;;4.70;4.20;;;1.70;80.80;;;;;;5100907;27;20871;-42
2021/12/03 06:21:07;;;;;;;4.47;4.07;;;1.70;80.80;;;;;;5081686;28;20486;-42
2021/12/03 06:23:34;;;;;;;4.87;3.67;;;1.80;80.90;;;;;;5092609;27;20964;-42
2021/12/03 06:26:01;;;;;;;7.10;4.90;;;1.70;80.90;;;;;;5076658;28;20469;-42
2021/12/03 06:28:30;;;;;;;4.30;3.70;;;1.80;80.90;;;;;;5081579;28;21005;-42
2021/12/03 06:30:57;;;;;;;7.67;4.43;;;1.70;81.00;;;;;;5078201;28;20455;-42
2021/12/03 06:33:24;;;;;;;4.80;3.70;;;1.70;81.00;;;;;;5096669;27;20509;-42
2021/12/03 06:35:51;;;;;;;4.17;3.83;;;1.70;81.00;;;;;;5094789;28;20471;-42
2021/12/03 06:38:19;;;;;;;5.50;4.20;;;1.70;80.90;;;;;;5081079;28;20484;-42
2021/12/03 06:40:47;;;;;;;7.47;4.73;;;1.70;80.90;;;;;;5096411;28;20540;-42
2021/12/03 06:43:14;;;;;;;6.00;4.40;;;1.60;81.20;;;;;;5060866;28;20456;-41
2021/12/03 06:45:41;;;;;;;8.07;4.70;;;1.60;81.20;;;;;;5079643;28;20456;-41
2021/12/03 06:48:09;;;;;;;9.50;5.20;;;1.60;81.20;;;;;;5100425;28;20452;-41
2021/12/03 06:50:37;;;;;;;9.07;5.37;;;1.60;81.20;;;;;;5080747;28;20463;-41
2021/12/03 06:53:10;;;;;;;7.43;5.10;;;1.60;81.20;;;;;;5097216;28;20831;-41
2021/12/03 06:55:45;;;;;;;10.30;5.33;;;1.50;81.20;;;;;;5097331;28;20464;-42
2021/12/03 06:58:13;;;;;;;5.03;4.50;;;1.50;81.30;;;;;;5098266;28;20512;-43
2021/12/03 07:00:40;;;;;;;9.53;5.70;;;1.60;81.40;;;;;;5096481;28;20469;-43
2021/12/03 07:03:07;;;;;;;9.00;5.63;;;1.60;81.40;;;;;;5096585;28;20452;-42
2021/12/03 07:05:35;;;;;;;6.47;5.60;;;1.60;81.50;;;;;;5102216;28;20995;-43
2021/12/03 07:08:02;;;;;;;7.10;4.93;;;1.50;81.50;;;;;;5080240;28;20495;-43
2021/12/03 07:10:29;;;;;;;6.80;5.17;;;1.60;81.40;;;;;;5096795;28;20463;-42
2021/12/03 07:12:56;;;;;;;8.20;4.20;;;1.50;81.40;;;;;;5085333;28;20556;-42
2021/12/03 07:15:24;;;;;;;7.47;5.03;;;1.50;81.40;;;;;;5095052;28;20464;-42
2021/12/03 07:17:51;;;;;;;7.13;5.13;;;1.50;81.50;;;;;;5092909;28;20829;-42
2021/12/03 07:20:23;;;;;;;7.63;4.93;;;1.50;81.60;;;;;;5097128;28;20471;-43
2021/12/03 07:22:51;;;;;;;7.37;4.40;;;1.50;81.60;;;;;;5076293;28;20943;-42
2021/12/03 07:25:18;;;;;;;8.87;4.70;;;1.50;81.70;;;;;;5094031;28;20827;-42
2021/12/03 07:27:45;;;;;;;7.03;4.70;;;1.50;81.80;;;;;;5077828;28;20483;-42
2021/12/03 07:30:13;;;;;;;7.03;4.50;;;1.50;81.90;;;;;;5094290;28;20464;-43
2021/12/03 07:32:40;;;;;;;6.30;4.60;;;1.50;82.00;;;;;;5082984;28;20467;-42
2021/12/03 07:35:08;;;;;;;7.50;5.03;;;1.50;82.00;;;;;;5092721;28;20457;-42
2021/12/03 07:37:35;;;;;;;6.23;4.57;;;1.60;82.00;;;;;;5080792;28;20948;-42
2021/12/03 07:40:07;;;;;;;6.10;4.87;;;1.60;82.00;;;;;;5096214;28;20479;-42
2021/12/03 07:42:35;;;;;;;6.20;5.40;;;1.60;82.00;;;;;;5085257;28;20460;-42
2021/12/03 07:45:05;;;;;;;6.80;5.07;;;1.70;82.00;;;;;;5100630;28;20459;-43
2021/12/03 07:47:32;;;;;;;9.07;5.07;;;1.70;82.00;;;;;;5082189;28;20463;-42
2021/12/03 07:49:59;;;;;;;8.43;5.10;;;1.70;82.00;;;;;;5082247;28;20462;-42
2021/12/03 07:52:26;;;;;;;7.03;5.27;;;1.70;82.10;;;;;;5098238;27;20543;-42
2021/12/03 07:54:52;;;;;;;6.90;5.90;;;1.70;82.20;;;;;;5099777;27;20488;-43
2021/12/03 07:57:19;;;;;;;8.87;5.17;;;1.80;82.40;;;;;;5096758;28;20465;-42
2021/12/03 07:59:46;;;;;;;7.03;5.60;;;1.90;82.20;;;;;;5101336;28;20476;-42
2021/12/03 08:02:13;;;;;;;8.03;4.63;;;2.00;82.00;;;;;;5068148;28;20452;-42
2021/12/03 08:04:40;;;;;;;7.90;5.47;;;2.00;81.60;;;;;;5086299;28;20531;-42
2021/12/03 08:07:08;;;;;;;12.60;6.17;;;2.00;81.80;;;;;;5083946;28;20453;-42
2021/12/03 08:09:37;;;;;;;7.57;5.03;;;2.10;81.90;;;;;;5078873;28;20499;-43
2021/12/03 08:12:06;;;;;;;7.53;4.97;;;2.10;81.80;;;;;;5100549;28;20826;-43
2021/12/03 08:14:32;;;;;;;7.87;5.90;;;2.10;81.90;;;;;;5101126;27;20452;-43
2021/12/03 08:16:59;;;;;;;11.70;5.37;;;2.20;81.70;;;;;;5084928;28;21957;-43
2021/12/03 08:19:26;;;;;;;8.20;5.67;;;2.20;81.90;;;;;;5068988;28;20503;-43
2021/12/03 08:21:52;;;;;;;7.70;5.47;;;2.30;81.80;;;;;;5102906;28;20460;-43
2021/12/03 08:24:19;;;;;;;8.27;5.73;;;2.40;81.40;;;;;;5099117;27;20836;-42
2021/12/03 08:26:46;;;;;;;5.73;4.53;;;2.40;81.20;;;;;;5097395;28;20453;-42
2021/12/03 08:29:13;;;;;;;7.93;6.30;;;2.40;81.60;;;;;;5096803;28;21065;-42
2021/12/03 08:31:39;;;;;;;10.53;7.53;;;2.40;81.50;;;;;;5098750;27;20851;-42
2021/12/03 08:34:08;;;;;;;11.00;6.40;;;2.50;81.50;;;;;;5097476;28;20863;-42
2021/12/03 08:36:35;;;;;;;8.93;5.43;;;2.50;81.30;;;;;;5097559;28;20954;-42
2021/12/03 08:39:03;;;;;;;8.40;5.90;;;2.50;81.30;;;;;;5095702;27;20483;-42
2021/12/03 08:41:30;;;;;;;8.80;7.23;;;2.60;81.20;;;;;;5091924;28;20499;-42
2021/12/03 08:43:57;;;;;;;9.90;5.80;;;2.60;81.10;;;;;;5099139;28;20452;-42
2021/12/03 08:46:29;;;;;;;9.33;7.10;;;2.60;80.80;;;;;;5097656;27;20838;-42
2021/12/03 08:49:05;;;;;;;12.10;6.80;;;2.60;81.00;;;;;;5083670;27;20878;-42
2021/12/03 08:51:46;;;;;;;7.43;5.80;;;2.70;81.10;;;;;;5102049;27;20464;-42
2021/12/03 08:56:58;;;;;;;7.00;4.50;;;2.70;81.30;;;;;;5097856;28;20478;-41
2021/12/03 08:59:26;;;;;;;8.27;6.90;;;2.70;81.50;;;;;;5080905;28;20485;-41
2021/12/03 09:01:52;;;;;;;9.57;6.70;;;2.80;81.10;;;;;;5104413;27;20463;-42
2021/12/03 09:04:19;;;;;;;13.70;6.37;;;2.80;81.30;;;;;;5082279;28;20458;-42
2021/12/03 09:06:46;;;;;;;9.90;6.97;;;2.80;81.60;;;;;;5080878;28;20464;-41
2021/12/03 09:09:13;;;;;;;8.30;6.57;;;2.90;81.50;;;;;;5096263;27;20525;-41
2021/12/03 09:11:40;;;;;;;9.73;6.83;;;2.90;81.80;;;;;;5094878;27;20809;-43
2021/12/03 09:14:16;;;;;;;9.27;8.37;;;3.00;81.10;;;;;;5099463;28;21022;-43
2021/12/03 09:16:46;;;;;;;7.33;5.80;;;3.00;80.80;;;;;;5085913;27;20498;-43
2021/12/03 09:19:20;;;;;;;8.23;6.10;;;3.00;81.50;;;;;;5101335;28;20994;-43
2021/12/03 09:21:47;;;;;;;6.90;5.13;;;3.10;81.40;;;;;;5102739;28;20459;-43
2021/12/03 09:24:18;;;;;;;8.27;5.83;;;3.10;81.80;;;;;;5097159;27;20969;-43
2021/12/03 09:26:45;;;;;;;7.47;5.77;;;3.20;81.70;;;;;;5098211;27;20460;-43
2021/12/03 09:29:15;;;;;;;6.17;4.80;;;3.30;81.90;;;;;;5098348;27;20460;-43
2021/12/03 09:31:43;;;;;;;7.50;5.90;;;3.40;81.30;;;;;;5098257;27;20983;-43
2021/12/03 09:34:11;;;;;;;6.20;5.13;;;3.50;81.10;;;;;;5082055;28;20532;-43
2021/12/03 09:36:41;;;;;;;5.47;4.80;;;3.60;80.60;;;;;;5101879;27;20867;-43
2021/12/03 09:39:14;;;;;;;4.90;4.50;;;3.70;79.60;;;;;;5084167;28;20490;-43
2021/12/03 09:41:40;;;;;;;6.10;4.43;;;3.80;79.40;;;;;;5097306;27;20471;-43
2021/12/03 09:44:07;;;;;;;9.00;5.33;;;3.90;79.50;;;;;;5100264;27;20459;-43
2021/12/03 09:46:34;;;;;;;8.47;5.73;;;4.10;78.50;;;;;;5103105;27;21020;-43
2021/12/03 09:51:41;;;;;;;8.10;5.50;;;4.30;77.30;;;;;;5094448;27;20605;-43
2021/12/03 09:56:34;;;;;;;11.77;6.70;;;4.30;77.00;;;;;;5095589;28;20480;-43
2021/12/03 10:10:20;;;;;;;10.27;6.43;;;4.20;78.90;;;;;;5101522;28;20757;-43
2021/12/03 10:15:43;;;;;;;6.23;5.63;;;4.20;78.50;;;;;;5093724;28;20460;-43
2021/12/03 10:18:19;;;;;;;8.33;5.70;;;4.30;77.00;;;;;;5092326;28;20461;-43
2021/12/03 10:20:51;;;;;;;7.17;4.87;;;4.20;77.50;;;;;;5086523;28;20480;-43
2021/12/03 10:27:01;;;;;;;6.90;4.90;;;4.30;76.90;;;;;;5096385;28;20461;-43
2021/12/03 10:29:48;;;;;;;6.67;4.63;;;4.20;76.90;;;;;;5102055;27;20942;-43
2021/12/03 10:35:15;;;;;;;6.60;4.40;;;4.20;76.30;;;;;;5096261;28;20457;-43
2021/12/03 10:57:26;;;;;;;4.60;4.20;;;4.00;76.90;;;;;;5099216;28;20483;-43
2021/12/03 11:01:00;;;;;;;5.07;4.60;;;4.00;76.80;;;;;;5095529;28;20545;-43
2021/12/03 11:15:08;;;;;;;8.17;4.77;;;3.90;76.90;;;;;;5096016;28;20478;-43
2021/12/03 11:17:39;;;;;;;7.10;5.13;;;4.00;78.20;;;;;;5103140;27;20450;-43
2021/12/03 11:31:37;;;;;;;9.53;5.13;;;3.90;76.80;;;;;;5103069;28;20582;-43
2021/12/03 11:39:46;;;;;;;6.13;4.23;;;3.90;77.40;;;;;;5101188;28;20452;-43
2021/12/03 11:57:26;;;;;;;6.40;4.80;;;3.90;77.80;;;;;;5081363;28;20484;-43
2021/12/03 12:29:17;;;;;;;4.70;3.23;;;3.80;77.90;;;;;;5099161;27;20458;-42
2021/12/03 13:02:54;;;;;;;6.20;5.07;;;3.50;79.20;;;;;;5066449;28;20503;-43
2021/12/03 14:57:07;;;;;;;6.47;5.43;;;3.60;78.90;;;;;;5103845;28;20927;-43
2021/12/03 14:59:37;;;;;;;6.23;4.73;;;3.60;78.90;;;;;;5099638;28;20644;-43
2021/12/03 15:02:26;;;;;;;7.27;5.40;;;3.60;78.60;;;;;;5086294;28;20483;-43
2021/12/03 15:07:33;;;;;;;6.27;4.57;;;3.60;77.80;;;;;;5101682;28;21033;-43
2021/12/03 15:10:04;;;;;;;5.87;5.07;;;3.50;78.10;;;;;;5099304;28;20453;-43
2021/12/03 15:13:01;;;;;;;6.03;4.77;;;3.50;78.10;;;;;;5087061;28;20459;-43
2021/12/03 15:26:39;;;;;;;4.47;4.00;;;3.40;78.70;;;;;;5101718;27;20451;-43
2021/12/03 15:29:21;;;;;;;6.00;4.50;;;3.50;78.60;;;;;;5098300;28;20520;-43
2021/12/03 15:32:15;;;;;;;6.10;4.00;;;3.50;78.30;;;;;;5097012;28;20447;-43
2021/12/03 16:04:43;;;;;;;4.83;3.80;;;3.60;78.40;;;;;;5093026;28;20568;-43
2021/12/03 16:10:15;;;;;;;5.47;4.20;;;3.70;78.40;;;;;;5075330;28;20452;-43
2021/12/03 16:51:04;;;;;;;6.57;5.40;;;3.70;78.70;;;;;;5100109;27;20488;-43
2021/12/03 16:53:32;;;;;;;4.60;4.20;;;3.70;78.50;;;;;;5099469;28;20467;-43
2021/12/03 16:56:19;;;;;;;4.77;4.23;;;3.70;79.00;;;;;;5086975;27;20571;-43
2021/12/03 16:58:46;;;;;;;6.37;5.13;;;3.60;79.00;;;;;;5098597;28;20470;-43
2021/12/03 17:01:31;;;;;;;6.70;4.40;;;3.60;79.30;;;;;;5095923;28;20477;-43
2021/12/03 17:57:48;;;;;;;5.30;3.63;;;3.70;79.70;;;;;;5096379;28;20539;-43
2021/12/03 18:00:26;;;;;;;4.70;4.23;;;3.70;80.00;;;;;;5094981;28;20459;-43
2021/12/03 18:02:57;;;;;;;5.40;3.63;;;3.70;79.70;;;;;;5086092;28;20483;-43
2021/12/03 18:06:18;;;;;;;6.20;4.00;;;3.70;79.70;;;;;;5094116;28;20448;-43
2021/12/03 18:08:41;;;;;;;5.30;4.20;;;3.70;79.50;;;;;;5093496;28;20445;-43
2021/12/03 18:14:50;;;;;;;4.47;3.70;;;3.80;79.00;;;;;;5096065;28;20886;-43
2021/12/03 18:43:49;;;;;;;4.50;3.80;;;3.80;80.20;;;;;;5088084;28;20474;-43
2021/12/03 18:56:53;;;;;;;6.73;4.30;;;3.80;79.10;;;;;;5080501;28;20480;-43
2021/12/03 18:59:24;;;;;;;5.87;4.00;;;3.80;79.60;;;;;;5101945;28;20462;-43
2021/12/03 19:01:52;;;;;;;4.30;3.80;;;3.70;80.00;;;;;;5096066;28;20588;-43
2021/12/03 19:04:38;;;;;;;5.10;3.60;;;3.80;79.60;;;;;;5093076;28;20496;-43
2021/12/03 19:07:13;;;;;;;4.37;3.60;;;3.80;79.50;;;;;;5095143;28;20451;-43
2021/12/03 19:09:44;;;;;;;4.23;3.50;;;3.80;79.50;;;;;;5096719;28;20647;-43
2021/12/03 19:12:24;;;;;;;4.80;3.87;;;3.80;79.10;;;;;;5098153;28;20539;-43
2021/12/03 19:14:55;;;;;;;5.00;4.53;;;3.80;79.20;;;;;;5094082;28;20550;-43
2021/12/03 19:17:23;;;;;;;4.30;3.90;;;3.80;79.20;;;;;;5091072;28;20840;-43
2021/12/03 19:19:56;;;;;;;4.80;3.53;;;3.80;79.40;;;;;;5096639;28;20499;-43
2021/12/03 19:22:23;;;;;;;6.03;3.63;;;3.90;79.10;;;;;;5094174;28;20575;-43
2021/12/03 19:24:55;;;;;;;7.37;4.03;;;3.90;78.70;;;;;;5093089;28;20492;-43
2021/12/03 19:27:24;;;;;;;4.00;3.23;;;3.90;78.90;;;;;;5071416;28;20873;-43
2021/12/03 19:29:58;;;;;;;6.10;3.50;;;3.90;79.00;;;;;;5081229;28;20581;-43
2021/12/03 19:32:28;;;;;;;9.57;4.27;;;3.90;78.80;;;;;;5095603;28;20554;-43
2021/12/03 19:34:55;;;;;;;7.90;4.63;;;3.90;78.80;;;;;;5098538;28;20539;-43
2021/12/03 19:37:24;;;;;;;4.47;4.07;;;3.90;78.40;;;;;;5094515;27;20469;-43
2021/12/03 19:39:52;;;;;;;6.70;4.20;;;3.90;78.30;;;;;;5097933;28;20514;-43
2021/12/03 19:42:22;;;;;;;4.83;3.80;;;3.90;78.00;;;;;;5100880;27;21012;-43
2021/12/03 19:45:01;;;;;;;4.47;3.57;;;3.90;78.70;;;;;;5078973;28;20555;-43
2021/12/03 19:47:46;;;;;;;5.27;4.37;;;3.90;78.60;;;;;;5095490;28;21171;-43
2021/12/03 19:53:10;;;;;;;5.30;4.30;;;3.90;78.60;;;;;;5082165;28;21004;-43
2021/12/03 19:55:37;;;;;;;8.50;3.97;;;4.00;77.60;;;;;;5096799;27;21278;-43
2021/12/03 19:58:05;;;;;;;9.17;2.90;;;4.00;77.80;;;;;;5096080;27;20865;-43
2021/12/03 20:00:32;;;;;;;5.50;3.23;;;4.00;77.90;;;;;;5097708;27;20551;-43
2021/12/03 20:02:59;;;;;;;4.30;3.90;;;4.00;78.00;;;;;;5096261;28;20490;-43
2021/12/03 20:05:26;;;;;;;6.10;3.57;;;4.00;77.90;;;;;;5097415;27;20455;-43
2021/12/03 20:07:54;;;;;;;3.70;3.10;;;4.00;78.00;;;;;;5095196;28;20473;-43
2021/12/03 20:10:24;;;;;;;5.53;2.87;;;4.00;78.10;;;;;;5101814;27;20558;-43
2021/12/03 20:12:51;;;;;;;4.70;4.30;;;4.00;78.40;;;;;;5100870;27;20946;-43
2021/12/03 20:20:40;;;;;;;4.70;3.50;;;4.00;78.10;;;;;;5093475;27;20547;-43
2021/12/03 20:28:41;;;;;;;4.63;3.10;;;4.10;78.40;;;;;;5080260;28;20546;-43
2021/12/03 20:31:10;;;;;;;6.73;4.13;;;4.10;77.90;;;;;;5091547;28;20479;-43
2021/12/03 20:33:53;;;;;;;2.83;2.50;;;4.10;78.20;;;;;;5094678;27;20488;-43
2021/12/03 20:36:45;;;;;;;5.20;3.80;;;4.10;78.40;;;;;;5080333;28;20555;-43
2021/12/03 20:39:22;;;;;;;3.60;3.27;;;4.10;78.10;;;;;;5079383;28;20911;-43
2021/12/03 20:41:57;;;;;;;3.17;2.93;;;4.10;78.40;;;;;;5098159;28;21077;-43
2021/12/03 21:11:04;;;;;;;3.60;3.30;;;4.20;78.00;;;;;;5098148;27;20471;-43